Needham, Indiana
Current Conditions -  °F | °C
As of 6:53 PM on Sunday 21 Dec 2014 (Local Time) from KGEZ Reporting Station
Clear Clear  
Wind Chill: 26°   Ceiling: Unl
Heat Index: 32°   Visibility: 8mi
Dew Point: 26°   Wind: 7mph
Humidity: 79%   Direction: 80°E
Pressure: 30.13"   Gusts: NA
Location:  39.53°N, 85.97°W
Report Text: KGEZ 212353Z AUTO 08006KT 8SM CLR 00/M03 A3013 RMK AO2 SLP214 T00001033 10039 20000 56007
Loading
Personal Weather Stations






























Interactive Weather Map New forecast layout! Learn more

10-Day Weather Forecast

Advertisements
Track Severe Weather on mobile